Time;durP1;ratioP1;P1;durP2;ratioP2;P2;SDS_P1;SDS_P2;PMS_P1;PMS_P2;Temp;Humidity;BMP_temperature;BMP_pressure;BME280_temperature;BME280_humidity;BME280_pressure;Samples;Min_cycle;Max_cycle;Signal;HPM_P1;HPM_P2
2021/03/01 00:02:20;;;;;;;19.98;11.27;;;4.90;99.90;;;;;;5075641;28;20172;-72
2021/03/01 00:04:46;;;;;;;22.73;10.48;;;4.80;99.90;;;;;;5073925;28;20068;-72
2021/03/01 00:07:12;;;;;;;26.48;12.32;;;4.90;99.90;;;;;;5075741;28;20032;-71
2021/03/01 00:09:37;;;;;;;25.15;11.23;;;4.90;99.90;;;;;;5079382;28;20048;-74
2021/03/01 00:12:04;;;;;;;20.70;9.20;;;4.80;99.90;;;;;;5075809;28;20443;-72
2021/03/01 00:14:29;;;;;;;21.90;11.45;;;4.90;99.90;;;;;;5075628;28;20028;-72
2021/03/01 00:16:55;;;;;;;26.25;11.02;;;4.90;99.90;;;;;;5074293;28;20032;-70
2021/03/01 00:19:21;;;;;;;23.08;10.88;;;4.90;99.90;;;;;;5074380;28;20032;-72
2021/03/01 00:21:46;;;;;;;23.55;11.15;;;4.90;99.90;;;;;;5075635;28;20027;-72
2021/03/01 00:24:12;;;;;;;24.10;11.52;;;4.90;99.90;;;;;;5073975;28;20338;-71
2021/03/01 00:26:38;;;;;;;29.58;12.23;;;4.80;99.90;;;;;;5073857;28;20389;-72
2021/03/01 00:29:03;;;;;;;26.63;12.73;;;4.80;99.90;;;;;;5074876;28;20024;-73
2021/03/01 00:31:29;;;;;;;25.40;11.63;;;4.70;99.90;;;;;;5075811;28;20477;-72
2021/03/01 00:33:55;;;;;;;22.75;11.38;;;4.70;99.90;;;;;;5074985;28;20052;-71
2021/03/01 00:36:20;;;;;;;26.83;13.43;;;4.70;99.90;;;;;;5073991;28;20067;-71
2021/03/01 00:38:46;;;;;;;29.08;14.23;;;4.80;99.90;;;;;;5075197;28;20443;-71
2021/03/01 00:41:11;;;;;;;26.58;12.95;;;4.80;99.90;;;;;;5072141;28;20059;-72
2021/03/01 00:43:37;;;;;;;27.70;12.70;;;4.70;99.90;;;;;;5071228;28;20016;-72
2021/03/01 00:46:03;;;;;;;27.52;13.02;;;4.80;99.90;;;;;;5074338;28;20016;-72
2021/03/01 00:48:28;;;;;;;29.75;12.95;;;4.80;99.90;;;;;;5075081;28;20393;-73
2021/03/01 00:50:54;;;;;;;31.90;13.07;;;4.90;99.90;;;;;;5075101;28;20031;-72
2021/03/01 00:53:21;;;;;;;28.95;12.98;;;5.10;99.90;;;;;;5074277;28;20053;-72
2021/03/01 00:55:46;;;;;;;27.45;13.18;;;5.10;99.90;;;;;;5075467;28;20035;-73
2021/03/01 00:58:12;;;;;;;42.55;14.48;;;5.10;99.90;;;;;;5074553;28;20024;-71
2021/03/01 01:00:38;;;;;;;31.10;14.05;;;5.10;99.90;;;;;;5073372;28;20091;-71
2021/03/01 01:03:04;;;;;;;34.47;14.70;;;5.10;99.90;;;;;;5072519;28;20070;-72
2021/03/01 01:05:29;;;;;;;34.25;14.35;;;5.10;99.90;;;;;;5074500;28;20028;-73
2021/03/01 01:07:55;;;;;;;33.15;13.00;;;5.10;99.90;;;;;;5074550;28;20034;-73
2021/03/01 01:10:21;;;;;;;33.35;14.95;;;5.20;99.90;;;;;;5074256;28;20030;-73
2021/03/01 01:12:46;;;;;;;26.38;13.35;;;5.30;99.90;;;;;;5073807;28;20456;-74
2021/03/01 01:15:12;;;;;;;28.98;13.60;;;5.20;99.90;;;;;;5074506;28;20055;-73
2021/03/01 01:17:40;;;;;;;31.10;12.60;;;5.30;99.90;;;;;;5074297;28;20048;-72
2021/03/01 01:20:11;;;;;;;27.58;12.40;;;5.30;99.90;;;;;;5073089;28;20037;-72
2021/03/01 01:22:37;;;;;;;30.45;13.32;;;5.30;99.90;;;;;;5073012;28;20033;-72
2021/03/01 01:25:05;;;;;;;27.67;12.85;;;5.40;99.90;;;;;;5073437;28;20100;-73
2021/03/01 01:27:31;;;;;;;28.58;12.65;;;5.40;99.90;;;;;;5074178;28;20074;-72
2021/03/01 01:29:56;;;;;;;25.50;12.32;;;5.40;99.90;;;;;;5072998;28;20431;-74
2021/03/01 01:32:22;;;;;;;27.73;11.88;;;5.40;99.90;;;;;;5074057;28;20029;-72
2021/03/01 01:34:47;;;;;;;28.13;12.25;;;5.50;99.90;;;;;;5072717;28;20036;-73
2021/03/01 01:37:13;;;;;;;27.60;11.85;;;5.50;99.90;;;;;;5073119;28;20074;-72
2021/03/01 01:39:38;;;;;;;25.48;11.55;;;5.40;99.90;;;;;;5073963;28;20112;-73
2021/03/01 01:42:04;;;;;;;25.63;10.23;;;5.40;99.90;;;;;;5072137;28;20442;-73
2021/03/01 01:44:30;;;;;;;23.42;10.85;;;5.40;99.90;;;;;;5073649;28;20578;-72
2021/03/01 01:46:55;;;;;;;23.85;11.50;;;5.40;99.90;;;;;;5072142;28;20040;-72
2021/03/01 01:49:21;;;;;;;21.92;10.40;;;5.40;99.90;;;;;;5073751;28;20028;-73
2021/03/01 01:51:47;;;;;;;27.58;10.63;;;5.40;99.90;;;;;;5072866;28;20365;-74
2021/03/01 01:54:12;;;;;;;20.67;9.68;;;5.40;99.90;;;;;;5073274;28;20069;-74
2021/03/01 01:56:40;;;;;;;18.42;10.23;;;5.40;99.90;;;;;;5071607;28;20152;-73
2021/03/01 01:59:06;;;;;;;22.80;9.82;;;5.30;99.90;;;;;;5071637;28;20131;-74
2021/03/01 02:01:31;;;;;;;24.20;9.77;;;5.30;99.90;;;;;;5072846;28;20052;-72
2021/03/01 02:04:10;;;;;;;32.00;10.77;;;5.30;99.90;;;;;;5073583;28;20021;-74
2021/03/01 02:07:04;;;;;;;23.23;10.55;;;5.40;99.90;;;;;;5073947;28;20051;-73
2021/03/01 02:09:57;;;;;;;29.35;12.07;;;5.40;99.90;;;;;;5068916;28;20025;-73
2021/03/01 02:12:51;;;;;;;24.17;11.02;;;5.40;99.90;;;;;;5073169;28;20473;-73
2021/03/01 02:15:37;;;;;;;29.67;12.77;;;5.40;99.90;;;;;;5072847;28;20481;-72
2021/03/01 02:18:03;;;;;;;23.65;11.27;;;5.40;99.90;;;;;;5070735;28;20435;-73
2021/03/01 02:20:29;;;;;;;32.63;13.20;;;5.40;99.90;;;;;;5073272;28;20025;-72
2021/03/01 02:22:54;;;;;;;27.98;11.73;;;5.40;99.90;;;;;;5074165;28;20024;-72
2021/03/01 02:25:25;;;;;;;24.90;11.32;;;5.40;99.90;;;;;;5073154;28;20115;-71
2021/03/01 02:28:12;;;;;;;32.40;12.45;;;5.30;99.90;;;;;;5072644;28;20503;-71
2021/03/01 02:30:46;;;;;;;29.57;13.37;;;5.30;99.90;;;;;;5060805;28;20385;-74
2021/03/01 02:33:44;;;;;;;35.78;13.00;;;5.30;99.90;;;;;;5072561;28;20643;-73
2021/03/01 02:36:35;;;;;;;29.75;12.32;;;5.30;99.90;;;;;;5046781;28;20052;-72
2021/03/01 02:39:05;;;;;;;26.23;12.05;;;5.30;99.90;;;;;;5070055;28;20564;-72
2021/03/01 02:41:33;;;;;;;33.45;14.07;;;5.30;99.90;;;;;;5072816;28;20082;-73
2021/03/01 02:43:59;;;;;;;31.65;13.73;;;5.40;99.90;;;;;;5071488;28;20068;-73
2021/03/01 02:46:25;;;;;;;30.45;13.27;;;5.50;99.90;;;;;;5072697;28;20420;-73
2021/03/01 02:48:52;;;;;;;31.55;14.25;;;5.60;99.90;;;;;;5070703;28;20511;-73
2021/03/01 02:51:20;;;;;;;36.88;13.80;;;5.50;99.90;;;;;;5072827;28;20384;-73
2021/03/01 02:53:46;;;;;;;24.15;12.15;;;5.60;99.90;;;;;;5072457;28;20074;-73
2021/03/01 02:56:16;;;;;;;22.92;11.18;;;5.60;99.90;;;;;;5073374;28;20037;-73
2021/03/01 02:58:43;;;;;;;36.22;13.13;;;5.70;99.90;;;;;;5072036;28;20040;-74
2021/03/01 03:01:10;;;;;;;27.80;12.27;;;5.60;99.90;;;;;;5071355;28;20082;-73
2021/03/01 03:03:37;;;;;;;26.05;11.50;;;5.70;99.90;;;;;;5071316;28;20029;-73
2021/03/01 03:06:04;;;;;;;25.75;12.65;;;5.60;99.90;;;;;;5073168;28;20025;-73
2021/03/01 03:08:31;;;;;;;22.95;11.65;;;5.70;99.90;;;;;;5072090;28;20020;-73
2021/03/01 03:10:57;;;;;;;29.52;12.13;;;5.60;99.90;;;;;;5071480;28;20384;-72
2021/03/01 03:13:24;;;;;;;22.58;11.55;;;5.60;99.90;;;;;;5072097;28;20024;-73
2021/03/01 03:15:54;;;;;;;27.33;11.18;;;5.50;99.90;;;;;;5071621;28;20128;-73
2021/03/01 03:18:22;;;;;;;26.58;11.50;;;5.50;99.90;;;;;;5057167;28;20422;-72
2021/03/01 03:20:49;;;;;;;26.55;11.20;;;5.40;99.90;;;;;;5072228;28;20433;-73
2021/03/01 03:23:17;;;;;;;27.48;11.40;;;5.40;99.90;;;;;;5072046;28;20032;-74
2021/03/01 03:25:42;;;;;;;26.90;11.50;;;5.30;99.90;;;;;;5069264;28;20029;-73
2021/03/01 03:28:08;;;;;;;27.40;11.50;;;5.30;99.90;;;;;;5072528;28;20492;-73
2021/03/01 03:30:35;;;;;;;25.02;12.18;;;5.30;99.90;;;;;;5072333;28;20020;-73
2021/03/01 03:33:02;;;;;;;27.67;11.43;;;5.30;99.90;;;;;;5070953;28;20354;-74
2021/03/01 03:35:28;;;;;;;25.40;11.95;;;5.20;99.90;;;;;;5071145;28;20028;-73
2021/03/01 03:37:58;;;;;;;26.52;11.63;;;5.30;99.90;;;;;;5072177;28;20042;-72
2021/03/01 03:40:26;;;;;;;24.13;11.48;;;5.30;99.90;;;;;;5070513;28;20017;-73
2021/03/01 03:42:53;;;;;;;26.80;12.25;;;5.40;99.90;;;;;;5070806;28;20477;-73
2021/03/01 03:45:20;;;;;;;23.27;11.07;;;5.40;99.90;;;;;;5071072;28;20020;-73
2021/03/01 03:47:49;;;;;;;21.33;11.27;;;5.40;99.90;;;;;;5070814;28;20028;-73
2021/03/01 03:50:16;;;;;;;24.75;11.60;;;5.50;99.90;;;;;;5071381;28;20032;-73
2021/03/01 03:52:46;;;;;;;32.08;12.40;;;5.50;99.90;;;;;;5071842;28;20032;-73
2021/03/01 03:55:16;;;;;;;31.27;13.57;;;5.60;99.90;;;;;;5071309;28;20025;-73
2021/03/01 03:57:47;;;;;;;26.45;13.15;;;5.60;99.90;;;;;;5070655;28;20040;-73
2021/03/01 04:00:14;;;;;;;24.42;12.07;;;5.60;99.90;;;;;;5072004;28;20048;-74
2021/03/01 04:02:42;;;;;;;30.10;12.68;;;5.60;99.90;;;;;;5071815;28;20075;-74
2021/03/01 04:05:09;;;;;;;25.77;12.98;;;5.70;99.90;;;;;;5055722;28;20107;-73
2021/03/01 04:07:38;;;;;;;24.73;11.88;;;5.70;99.90;;;;;;5071021;28;20037;-74
2021/03/01 04:10:08;;;;;;;27.92;12.40;;;5.70;99.90;;;;;;5071518;28;20473;-73
2021/03/01 04:12:37;;;;;;;29.40;12.75;;;5.50;99.90;;;;;;5070717;28;20047;-74
2021/03/01 04:15:05;;;;;;;24.17;11.68;;;5.50;99.90;;;;;;5071383;28;20024;-74
2021/03/01 04:17:35;;;;;;;27.23;11.93;;;5.50;99.90;;;;;;5072237;28;20037;-74
2021/03/01 04:20:04;;;;;;;29.85;12.70;;;5.60;99.90;;;;;;5070141;28;20476;-73
2021/03/01 04:22:30;;;;;;;26.92;13.05;;;5.70;99.90;;;;;;5071342;28;20056;-74
2021/03/01 04:24:56;;;;;;;26.05;12.00;;;5.70;99.90;;;;;;5071793;28;20028;-73
2021/03/01 04:27:22;;;;;;;29.90;12.65;;;5.80;99.90;;;;;;5072929;28;20102;-73
2021/03/01 04:29:49;;;;;;;36.95;15.50;;;5.70;99.90;;;;;;5075428;28;20025;-73
2021/03/01 04:32:16;;;;;;;34.40;13.98;;;5.70;99.90;;;;;;5074799;28;20052;-73
2021/03/01 04:34:43;;;;;;;32.25;14.30;;;5.70;99.90;;;;;;5074195;28;20424;-73
2021/03/01 04:37:08;;;;;;;41.08;14.52;;;5.60;99.90;;;;;;5073863;28;20418;-74
2021/03/01 04:39:34;;;;;;;39.92;15.35;;;5.50;99.90;;;;;;5074204;28;20046;-73
2021/03/01 04:42:01;;;;;;;29.38;12.93;;;5.60;99.90;;;;;;5074768;28;20025;-73
2021/03/01 04:44:28;;;;;;;35.25;14.40;;;5.60;99.90;;;;;;5073705;28;20024;-73
2021/03/01 04:46:54;;;;;;;31.33;14.90;;;5.60;99.90;;;;;;5074457;28;20032;-72
2021/03/01 04:49:23;;;;;;;31.55;13.60;;;5.70;99.90;;;;;;5073677;28;20039;-73
2021/03/01 04:51:50;;;;;;;30.55;14.93;;;5.70;99.90;;;;;;5073606;28;20036;-73
2021/03/01 04:54:16;;;;;;;36.95;16.25;;;5.60;99.90;;;;;;5073596;28;20036;-73
2021/03/01 04:56:46;;;;;;;35.33;15.25;;;5.50;99.90;;;;;;5074151;28;20071;-73
2021/03/01 04:59:17;;;;;;;40.05;15.20;;;5.50;99.90;;;;;;5067914;28;20042;-73
2021/03/01 05:01:44;;;;;;;33.00;14.02;;;5.50;99.90;;;;;;5072536;28;20174;-73
2021/03/01 05:04:10;;;;;;;32.47;13.95;;;5.50;99.90;;;;;;5055526;28;20384;-73
2021/03/01 05:06:37;;;;;;;35.95;15.60;;;5.60;99.90;;;;;;5075193;28;20028;-73
2021/03/01 05:09:03;;;;;;;34.95;15.18;;;5.60;99.90;;;;;;5074119;28;20103;-74
2021/03/01 05:11:34;;;;;;;35.33;15.48;;;5.60;99.90;;;;;;5073397;28;20093;-74
2021/03/01 05:14:01;;;;;;;36.25;16.48;;;5.60;99.90;;;;;;5073579;28;20078;-73
2021/03/01 05:16:28;;;;;;;36.90;16.33;;;5.60;99.90;;;;;;5070884;28;20063;-72
2021/03/01 05:18:54;;;;;;;30.80;15.18;;;5.70;99.90;;;;;;5066354;28;20036;-73
2021/03/01 05:21:20;;;;;;;37.40;14.82;;;5.80;99.90;;;;;;5073144;28;20413;-72
2021/03/01 05:23:46;;;;;;;37.65;16.08;;;5.70;99.90;;;;;;5073778;28;20607;-73
2021/03/01 05:26:13;;;;;;;39.70;15.85;;;5.50;99.90;;;;;;5073679;28;20433;-73
2021/03/01 05:28:39;;;;;;;39.03;14.93;;;5.50;99.90;;;;;;5072778;28;20017;-73
2021/03/01 05:31:05;;;;;;;34.35;13.80;;;5.50;99.90;;;;;;5074325;28;20370;-74
2021/03/01 05:33:31;;;;;;;37.28;14.85;;;5.50;99.90;;;;;;5072257;28;20041;-73
2021/03/01 05:35:57;;;;;;;35.50;16.88;;;5.50;99.90;;;;;;5072972;28;20039;-73
2021/03/01 05:38:23;;;;;;;38.35;15.13;;;5.40;99.90;;;;;;5072715;28;20123;-73
2021/03/01 05:40:49;;;;;;;36.13;14.75;;;5.50;99.90;;;;;;5074385;28;20032;-73
2021/03/01 05:43:17;;;;;;;39.40;16.77;;;5.50;99.90;;;;;;5072377;28;20134;-75
2021/03/01 05:45:44;;;;;;;38.05;15.38;;;5.50;99.90;;;;;;5074475;28;20016;-73
2021/03/01 05:48:11;;;;;;;36.80;15.82;;;5.40;99.90;;;;;;5073222;28;20145;-74
2021/03/01 05:50:40;;;;;;;36.50;14.65;;;5.40;99.90;;;;;;5072227;28;20028;-75
2021/03/01 05:53:08;;;;;;;37.47;14.93;;;5.40;99.90;;;;;;5072963;28;20377;-74
2021/03/01 05:55:34;;;;;;;33.28;14.15;;;5.40;99.90;;;;;;5074585;28;20024;-74
2021/03/01 05:58:01;;;;;;;39.75;16.60;;;5.40;99.90;;;;;;5072992;28;20028;-73
2021/03/01 06:00:28;;;;;;;41.10;15.32;;;5.50;99.90;;;;;;5071754;28;20081;-73
2021/03/01 06:02:56;;;;;;;35.70;15.57;;;5.40;99.90;;;;;;5071735;28;20032;-74
2021/03/01 06:05:23;;;;;;;39.38;16.27;;;5.40;99.90;;;;;;5070809;28;20039;-74
2021/03/01 06:07:50;;;;;;;37.03;14.35;;;5.40;99.90;;;;;;5072628;28;20024;-72
2021/03/01 06:10:15;;;;;;;40.88;15.23;;;5.40;99.90;;;;;;5072862;28;20102;-73
2021/03/01 06:12:41;;;;;;;31.50;14.25;;;5.40;99.90;;;;;;5079412;28;20028;-73
2021/03/01 06:15:09;;;;;;;34.15;13.38;;;5.30;99.90;;;;;;5073180;28;20016;-72
2021/03/01 06:17:34;;;;;;;33.83;12.90;;;5.30;99.90;;;;;;5071663;28;20032;-73
2021/03/01 06:20:00;;;;;;;33.33;14.02;;;5.30;99.90;;;;;;5072077;28;20020;-73
2021/03/01 06:22:35;;;;;;;40.67;15.25;;;5.10;99.90;;;;;;5072573;28;20028;-73
2021/03/01 06:25:17;;;;;;;32.58;13.57;;;5.20;99.90;;;;;;5072493;28;20161;-74
2021/03/01 06:27:57;;;;;;;32.53;13.93;;;5.30;99.90;;;;;;5060950;28;20033;-73
2021/03/01 06:30:28;;;;;;;35.45;14.50;;;5.20;99.90;;;;;;5073032;28;20025;-73
2021/03/01 06:33:10;;;;;;;35.30;15.30;;;5.20;99.90;;;;;;5072873;28;20036;-73
2021/03/01 06:35:42;;;;;;;42.38;16.98;;;5.10;99.90;;;;;;5067531;28;20035;-73
2021/03/01 06:38:38;;;;;;;41.97;15.40;;;5.10;99.90;;;;;;5072151;28;20032;-74
2021/03/01 06:41:12;;;;;;;36.13;15.50;;;5.20;99.90;;;;;;5071735;28;20032;-73
2021/03/01 06:43:59;;;;;;;33.90;15.90;;;5.20;99.90;;;;;;5072007;28;20031;-73
2021/03/01 06:46:27;;;;;;;27.60;12.48;;;5.30;99.90;;;;;;5072667;28;20542;-73
2021/03/01 06:48:53;;;;;;;34.38;14.00;;;5.20;99.90;;;;;;5072395;28;20097;-73
2021/03/01 06:51:19;;;;;;;34.67;14.30;;;5.20;99.90;;;;;;5070366;28;20099;-74
2021/03/01 06:53:45;;;;;;;33.65;13.93;;;5.30;99.90;;;;;;5072374;28;20440;-73
2021/03/01 06:56:13;;;;;;;34.88;13.90;;;5.30;99.90;;;;;;5072844;28;20032;-74
2021/03/01 06:58:43;;;;;;;41.00;14.75;;;5.20;99.90;;;;;;5071068;28;20446;-74
2021/03/01 07:01:20;;;;;;;31.92;13.30;;;5.30;99.90;;;;;;5072634;28;20025;-74
2021/03/01 07:03:49;;;;;;;34.53;13.98;;;5.40;99.90;;;;;;5070988;28;20075;-74
2021/03/01 07:06:15;;;;;;;32.97;14.38;;;5.40;99.90;;;;;;5070918;28;20504;-74
2021/03/01 07:08:45;;;;;;;27.50;12.45;;;5.40;99.90;;;;;;5072273;28;20110;-74
2021/03/01 07:11:25;;;;;;;30.75;12.25;;;5.40;99.90;;;;;;5072524;28;20028;-74
2021/03/01 07:13:53;;;;;;;33.10;13.57;;;5.50;99.90;;;;;;5069826;28;20028;-74
2021/03/01 07:16:19;;;;;;;34.95;14.32;;;5.40;99.90;;;;;;5071264;28;20024;-74
2021/03/01 07:18:45;;;;;;;32.08;14.10;;;5.50;99.90;;;;;;5072468;28;20028;-74
2021/03/01 07:21:14;;;;;;;35.20;14.70;;;5.40;99.90;;;;;;5072362;28;20107;-72
2021/03/01 07:26:34;;;;;;;34.17;13.85;;;5.50;99.90;;;;;;5073182;28;20039;-74
2021/03/01 07:29:10;;;;;;;40.03;13.90;;;5.40;99.90;;;;;;5072249;28;20528;-75
2021/03/01 07:31:39;;;;;;;31.95;13.52;;;5.30;99.90;;;;;;5071537;28;20025;-73
2021/03/01 07:34:07;;;;;;;29.73;11.80;;;5.30;99.90;;;;;;5071121;28;20024;-74
2021/03/01 07:36:33;;;;;;;35.22;13.27;;;5.30;99.90;;;;;;5070996;28;20389;-74
2021/03/01 07:39:01;;;;;;;27.67;12.75;;;5.30;99.90;;;;;;5072497;28;20025;-74
2021/03/01 07:41:28;;;;;;;27.20;12.32;;;5.30;99.90;;;;;;5071195;28;20036;-74
2021/03/01 07:43:54;;;;;;;30.42;12.80;;;5.20;99.90;;;;;;5072053;28;20027;-73
2021/03/01 07:46:31;;;;;;;28.95;12.80;;;5.30;99.90;;;;;;5067572;28;20028;-72
2021/03/01 07:48:58;;;;;;;43.05;12.95;;;5.20;99.90;;;;;;5069675;28;20499;-73
2021/03/01 07:51:42;;;;;;;29.83;12.40;;;5.20;99.90;;;;;;5068372;28;20051;-72
2021/03/01 07:54:10;;;;;;;25.38;11.80;;;5.20;99.90;;;;;;5069673;28;20028;-74
2021/03/01 07:56:38;;;;;;;29.17;11.87;;;5.10;99.90;;;;;;5070590;28;20025;-73
2021/03/01 07:59:08;;;;;;;29.40;12.02;;;5.10;99.90;;;;;;5070752;28;20041;-74
2021/03/01 08:01:35;;;;;;;33.42;12.98;;;5.00;99.90;;;;;;5065477;28;20040;-72
2021/03/01 08:04:01;;;;;;;29.00;11.85;;;5.00;99.90;;;;;;5072687;28;20041;-74
2021/03/01 08:06:56;;;;;;;30.65;12.05;;;4.90;99.90;;;;;;5069841;28;20469;-73
2021/03/01 08:09:48;;;;;;;32.00;12.27;;;4.90;99.90;;;;;;5073215;28;20025;-74
2021/03/01 08:12:36;;;;;;;25.50;11.18;;;4.90;99.90;;;;;;5070321;28;20071;-73
2021/03/01 08:15:09;;;;;;;32.55;13.00;;;5.00;99.90;;;;;;5075517;28;20028;-73
2021/03/01 08:17:37;;;;;;;32.45;11.93;;;4.90;99.90;;;;;;5075548;28;20384;-73
2021/03/01 08:20:14;;;;;;;31.73;13.75;;;4.90;99.90;;;;;;5075530;28;20473;-72
2021/03/01 08:23:05;;;;;;;30.10;12.40;;;4.90;99.90;;;;;;5073733;28;20025;-74
2021/03/01 08:28:24;;;;;;;30.65;12.43;;;4.90;99.90;;;;;;5073151;28;20078;-73
2021/03/01 08:31:13;;;;;;;24.85;11.32;;;4.80;99.90;;;;;;5073483;28;20488;-72
2021/03/01 08:33:39;;;;;;;26.38;10.77;;;4.90;99.90;;;;;;5066098;28;20085;-73
2021/03/01 08:36:10;;;;;;;31.83;12.75;;;5.00;99.90;;;;;;5078261;28;20036;-74
2021/03/01 08:38:43;;;;;;;30.33;13.20;;;5.10;99.90;;;;;;5071866;28;20033;-74
2021/03/01 08:41:10;;;;;;;23.23;11.27;;;5.10;99.90;;;;;;5073998;28;20060;-74
2021/03/01 08:43:38;;;;;;;22.13;11.13;;;5.00;99.90;;;;;;5073125;28;20112;-74
2021/03/01 08:46:04;;;;;;;;;;;5.00;99.90;;;;;;5072343;28;20025;-74
2021/03/01 08:48:30;;;;;;;23.40;11.25;;;5.10;99.90;;;;;;5074570;28;19915;-80
2021/03/01 08:50:56;;;;;;;27.02;10.63;;;5.10;99.90;;;;;;5072940;28;20025;-71
2021/03/01 08:53:25;;;;;;;22.80;10.50;;;5.10;99.90;;;;;;5076014;28;20036;-71
2021/03/01 08:55:58;;;;;;;22.48;10.15;;;5.10;99.90;;;;;;5071720;28;20044;-72
2021/03/01 08:58:30;;;;;;;23.25;9.38;;;5.20;99.90;;;;;;5073466;28;20028;-72
2021/03/01 09:00:56;;;;;;;23.98;9.95;;;5.20;99.90;;;;;;5073790;28;20123;-73
2021/03/01 09:03:24;;;;;;;20.85;10.30;;;5.20;99.90;;;;;;5073523;28;20047;-73
2021/03/01 09:05:51;;;;;;;22.15;9.98;;;5.30;99.90;;;;;;5073292;28;20024;-73
2021/03/01 09:08:32;;;;;;;19.15;9.02;;;5.30;99.90;;;;;;5061064;28;20024;-73
2021/03/01 09:11:00;;;;;;;22.27;8.82;;;5.20;99.90;;;;;;5071319;28;20028;-73
2021/03/01 09:13:26;;;;;;;;;;;5.20;99.90;;;;;;5068454;28;20028;-72
2021/03/01 09:15:52;;;;;;;22.63;8.82;;;5.30;99.90;;;;;;5069783;28;20348;-75
2021/03/01 09:18:18;;;;;;;26.00;10.60;;;5.30;99.90;;;;;;5067924;28;20028;-72
2021/03/01 09:21:03;;;;;;;25.88;10.75;;;5.40;99.90;;;;;;5073787;28;20029;-72
2021/03/01 09:23:37;;;;;;;25.02;10.77;;;5.50;99.90;;;;;;5071297;28;20021;-73
2021/03/01 09:26:07;;;;;;;22.63;9.88;;;5.50;99.90;;;;;;5067974;28;21398;-72
2021/03/01 09:28:36;;;;;;;23.85;9.93;;;5.50;99.90;;;;;;5065941;28;20021;-72
2021/03/01 09:31:07;;;;;;;20.95;10.00;;;5.60;99.90;;;;;;5065087;28;20358;-73
2021/03/01 09:33:33;;;;;;;22.58;10.27;;;5.60;99.90;;;;;;5071204;28;20039;-72
2021/03/01 09:35:59;;;;;;;21.17;9.35;;;5.50;99.90;;;;;;5073919;28;20040;-73
2021/03/01 09:38:24;;;;;;;20.77;9.82;;;5.50;99.90;;;;;;5082831;28;20028;-72
2021/03/01 09:43:43;;;;;;;22.70;9.98;;;5.60;99.90;;;;;;5068748;28;20083;-73
2021/03/01 09:46:10;;;;;;;22.98;10.85;;;5.60;99.90;;;;;;5069250;28;20484;-72
2021/03/01 09:48:42;;;;;;;23.58;10.25;;;5.70;99.90;;;;;;5068715;28;20032;-73
2021/03/01 09:51:09;;;;;;;25.00;10.80;;;5.80;99.90;;;;;;5069501;28;20217;-74
2021/03/01 09:53:35;;;;;;;26.70;10.05;;;5.90;99.90;;;;;;5071631;28;20032;-72
2021/03/01 09:56:03;;;;;;;19.40;9.35;;;6.00;99.90;;;;;;5068559;28;20032;-73
2021/03/01 09:58:34;;;;;;;22.42;9.55;;;6.10;99.90;;;;;;5065253;28;20027;-73
2021/03/01 10:01:14;;;;;;;23.48;9.52;;;6.20;99.90;;;;;;5057860;28;20032;-73
2021/03/01 10:03:47;;;;;;;27.83;10.98;;;6.30;99.90;;;;;;5064255;28;20063;-72
2021/03/01 10:06:15;;;;;;;26.27;10.15;;;6.20;99.90;;;;;;5061248;28;20029;-72
2021/03/01 10:08:43;;;;;;;23.60;9.75;;;6.10;99.90;;;;;;5055496;28;20494;-72
2021/03/01 10:11:23;;;;;;;25.85;10.65;;;6.20;99.90;;;;;;5071187;28;20481;-73
2021/03/01 10:13:49;;;;;;;18.70;9.13;;;6.20;99.90;;;;;;5070913;28;20054;-73
2021/03/01 10:16:31;;;;;;;23.63;10.82;;;6.20;99.90;;;;;;5070474;28;20028;-71
2021/03/01 10:19:08;;;;;;;21.33;9.88;;;6.20;99.90;;;;;;5068789;28;20131;-72
2021/03/01 10:21:34;;;;;;;22.25;10.38;;;6.20;99.90;;;;;;5071867;28;20028;-73
2021/03/01 10:24:06;;;;;;;25.20;10.30;;;6.30;99.90;;;;;;5072888;28;20028;-73
2021/03/01 10:26:32;;;;;;;27.60;10.55;;;6.50;99.90;;;;;;5066951;28;20013;-73
2021/03/01 10:29:01;;;;;;;23.45;10.00;;;6.70;99.90;;;;;;5072352;28;20048;-73
2021/03/01 10:31:38;;;;;;;22.60;11.27;;;6.70;99.90;;;;;;5070700;28;20043;-72
2021/03/01 10:34:11;;;;;;;21.38;10.18;;;6.70;99.90;;;;;;5072161;28;20075;-72
2021/03/01 10:36:39;;;;;;;24.02;10.38;;;6.70;99.90;;;;;;5072372;28;20178;-72
2021/03/01 10:39:17;;;;;;;26.30;10.38;;;6.70;99.90;;;;;;5071538;28;20111;-73
2021/03/01 10:41:50;;;;;;;22.88;10.20;;;6.70;99.90;;;;;;5070984;28;20361;-72
2021/03/01 10:44:17;;;;;;;20.60;9.70;;;6.70;99.90;;;;;;5072297;28;20103;-72
2021/03/01 10:46:48;;;;;;;20.67;9.30;;;6.80;99.90;;;;;;5069997;28;20123;-74
2021/03/01 10:49:29;;;;;;;19.20;9.02;;;6.70;99.90;;;;;;5067220;28;20573;-71
2021/03/01 10:51:57;;;;;;;16.92;8.63;;;6.70;99.90;;;;;;5063122;28;20033;-73
2021/03/01 10:54:24;;;;;;;18.27;8.07;;;6.80;99.90;;;;;;5064805;28;20051;-72
2021/03/01 10:56:49;;;;;;;19.95;9.23;;;7.00;99.90;;;;;;5067273;28;20511;-74
2021/03/01 10:59:15;;;;;;;19.23;7.68;;;7.20;99.90;;;;;;5068734;28;20040;-72
2021/03/01 11:01:43;;;;;;;19.20;8.27;;;7.30;99.90;;;;;;5060632;28;20081;-71
2021/03/01 11:04:10;;;;;;;15.30;7.63;;;7.40;99.90;;;;;;5066316;28;20023;-73
2021/03/01 11:06:38;;;;;;;14.63;7.53;;;7.60;99.90;;;;;;5072435;28;20039;-73
2021/03/01 11:09:05;;;;;;;;;;;7.70;99.90;;;;;;5069839;28;20477;-72
2021/03/01 11:11:33;;;;;;;20.17;8.80;;;7.70;99.90;;;;;;5072022;28;19913;-73
2021/03/01 11:13:58;;;;;;;19.05;7.70;;;7.90;99.90;;;;;;5067810;28;20072;-72
2021/03/01 11:16:24;;;;;;;20.48;8.13;;;8.00;99.90;;;;;;5064308;28;20121;-71
2021/03/01 11:18:50;;;;;;;17.92;7.72;;;8.10;99.90;;;;;;5061361;28;20047;-72
2021/03/01 11:21:15;;;;;;;18.80;7.85;;;8.00;99.90;;;;;;5056097;28;20029;-72
2021/03/01 11:23:41;;;;;;;20.25;8.70;;;8.10;99.90;;;;;;5057842;28;20021;-72
2021/03/01 11:26:07;;;;;;;15.65;7.57;;;8.00;99.90;;;;;;5054067;28;20492;-72
2021/03/01 11:28:33;;;;;;;16.65;7.82;;;8.00;99.90;;;;;;5059238;28;20385;-72
2021/03/01 11:30:59;;;;;;;16.70;7.93;;;8.00;99.90;;;;;;5064408;28;20024;-72
2021/03/01 11:33:25;;;;;;;20.23;8.18;;;8.00;99.90;;;;;;5060033;28;20028;-72
2021/03/01 11:35:53;;;;;;;14.07;7.43;;;8.00;99.90;;;;;;5059139;28;20378;-72
2021/03/01 11:38:19;;;;;;;18.20;7.68;;;8.20;99.90;;;;;;5059819;28;20041;-73
2021/03/01 11:40:44;;;;;;;15.10;7.25;;;8.30;99.90;;;;;;5067946;28;20024;-73
2021/03/01 11:43:10;;;;;;;13.15;7.25;;;8.50;99.90;;;;;;5066502;28;20025;-72
2021/03/01 11:45:36;;;;;;;18.70;8.13;;;8.90;99.90;;;;;;5061798;28;20020;-72
2021/03/01 11:48:02;;;;;;;15.32;7.05;;;9.20;99.90;;;;;;5059899;28;20033;-73
2021/03/01 11:50:28;;;;;;;17.80;6.90;;;9.40;99.90;;;;;;5061497;28;20108;-72
2021/03/01 11:52:54;;;;;;;16.10;6.80;;;9.40;99.90;;;;;;5061036;28;20059;-73
2021/03/01 11:55:20;;;;;;;14.73;7.10;;;9.40;99.90;;;;;;5061876;28;20072;-72
2021/03/01 11:57:46;;;;;;;21.73;8.43;;;9.20;99.90;;;;;;5067947;28;20028;-73
2021/03/01 12:00:12;;;;;;;15.98;7.72;;;9.10;99.90;;;;;;5067105;28;20052;-72
2021/03/01 12:02:38;;;;;;;17.13;8.10;;;9.20;99.90;;;;;;5069539;28;20024;-73
2021/03/01 12:05:04;;;;;;;18.88;7.45;;;9.30;99.90;;;;;;5070639;28;20503;-73
2021/03/01 12:07:30;;;;;;;17.17;7.20;;;9.20;99.90;;;;;;5064777;28;20477;-73
2021/03/01 12:09:55;;;;;;;16.30;7.43;;;9.00;99.90;;;;;;5066264;28;20040;-74
2021/03/01 12:12:21;;;;;;;17.50;6.97;;;8.90;99.90;;;;;;5065108;28;20025;-71
2021/03/01 12:14:47;;;;;;;16.50;7.05;;;9.00;99.90;;;;;;5067572;28;20024;-72
2021/03/01 12:17:12;;;;;;;16.40;7.70;;;9.10;99.90;;;;;;5066844;28;20073;-73
2021/03/01 12:19:39;;;;;;;15.57;7.05;;;9.20;99.90;;;;;;5069700;28;20040;-72
2021/03/01 12:22:06;;;;;;;23.08;8.05;;;9.30;99.90;;;;;;5069692;28;20028;-73
2021/03/01 12:24:31;;;;;;;13.75;7.00;;;9.30;99.90;;;;;;5071158;28;20036;-72
2021/03/01 12:26:57;;;;;;;18.77;9.23;;;9.40;99.90;;;;;;5069702;28;20024;-72
2021/03/01 12:29:23;;;;;;;18.30;7.35;;;9.40;99.90;;;;;;5065245;28;20032;-73
2021/03/01 12:31:49;;;;;;;24.90;8.52;;;9.30;99.90;;;;;;5068643;28;20476;-73
2021/03/01 12:34:15;;;;;;;25.42;9.10;;;9.40;99.90;;;;;;5064565;28;20036;-72
2021/03/01 12:36:40;;;;;;;20.88;7.20;;;9.40;99.90;;;;;;5066573;28;20021;-73
2021/03/01 12:39:06;;;;;;;20.98;8.52;;;9.50;99.90;;;;;;5066974;28;20032;-72
2021/03/01 12:41:32;;;;;;;18.88;7.57;;;9.60;99.90;;;;;;5065912;28;20024;-74
2021/03/01 12:43:57;;;;;;;19.17;8.55;;;9.60;99.90;;;;;;5063904;28;20021;-72
2021/03/01 12:46:23;;;;;;;17.48;7.65;;;9.70;99.90;;;;;;5063356;28;20032;-74
2021/03/01 12:48:49;;;;;;;19.80;7.85;;;9.70;99.90;;;;;;5064920;28;20067;-74
2021/03/01 12:51:16;;;;;;;25.95;8.57;;;9.80;99.90;;;;;;5065076;28;20028;-72
2021/03/01 12:53:41;;;;;;;20.08;8.35;;;10.00;99.90;;;;;;5067431;28;20427;-72
2021/03/01 12:56:07;;;;;;;24.73;9.32;;;10.20;99.90;;;;;;5072791;28;20020;-72
2021/03/01 12:58:32;;;;;;;20.27;7.53;;;10.20;99.90;;;;;;5066743;28;20031;-74